sensor_id;sensor_type;location;lat;lon;timestamp;P1;durP1;ratioP1;P2;durP2;ratioP2
18695;SDS011;22617;43.690;27.956;2022-07-10T00:03:48;5.47;;;4.82;;
18695;SDS011;22617;43.690;27.956;2022-07-10T00:08:53;9.00;;;5.03;;
18695;SDS011;22617;43.690;27.956;2022-07-10T00:13:57;6.43;;;4.47;;
18695;SDS011;22617;43.690;27.956;2022-07-10T00:19:03;6.07;;;4.70;;
18695;SDS011;22617;43.690;27.956;2022-07-10T00:24:07;5.10;;;4.55;;
18695;SDS011;22617;43.690;27.956;2022-07-10T00:29:12;6.10;;;3.97;;
18695;SDS011;22617;43.690;27.956;2022-07-10T00:34:18;5.45;;;4.20;;
18695;SDS011;22617;43.690;27.956;2022-07-10T00:39:22;7.13;;;4.63;;
18695;SDS011;22617;43.690;27.956;2022-07-10T00:44:27;9.07;;;4.32;;
18695;SDS011;22617;43.690;27.956;2022-07-10T00:49:33;7.18;;;4.97;;
18695;SDS011;22617;43.690;27.956;2022-07-10T00:54:39;12.03;;;6.10;;
18695;SDS011;22617;43.690;27.956;2022-07-10T00:59:46;8.52;;;5.10;;
18695;SDS011;22617;43.690;27.956;2022-07-10T01:04:53;7.15;;;4.88;;
18695;SDS011;22617;43.690;27.956;2022-07-10T01:09:59;9.02;;;4.80;;
18695;SDS011;22617;43.690;27.956;2022-07-10T01:15:05;7.22;;;4.32;;
18695;SDS011;22617;43.690;27.956;2022-07-10T01:20:12;8.27;;;5.07;;
18695;SDS011;22617;43.690;27.956;2022-07-10T01:25:18;8.50;;;5.18;;
18695;SDS011;22617;43.690;27.956;2022-07-10T01:30:22;7.95;;;5.07;;
18695;SDS011;22617;43.690;27.956;2022-07-10T01:35:27;6.78;;;5.53;;
18695;SDS011;22617;43.690;27.956;2022-07-10T01:40:32;9.82;;;5.03;;
18695;SDS011;22617;43.690;27.956;2022-07-10T01:45:37;5.85;;;5.10;;
18695;SDS011;22617;43.690;27.956;2022-07-10T01:50:41;6.60;;;5.10;;
18695;SDS011;22617;43.690;27.956;2022-07-10T01:55:48;5.15;;;4.65;;
18695;SDS011;22617;43.690;27.956;2022-07-10T02:00:52;8.55;;;5.25;;
18695;SDS011;22617;43.690;27.956;2022-07-10T02:05:56;7.28;;;4.80;;
18695;SDS011;22617;43.690;27.956;2022-07-10T02:11:02;7.10;;;5.10;;
18695;SDS011;22617;43.690;27.956;2022-07-10T02:16:06;6.05;;;4.80;;
18695;SDS011;22617;43.690;27.956;2022-07-10T02:21:11;6.38;;;4.90;;
18695;SDS011;22617;43.690;27.956;2022-07-10T02:26:16;8.35;;;4.70;;
18695;SDS011;22617;43.690;27.956;2022-07-10T02:31:20;8.00;;;4.63;;
18695;SDS011;22617;43.690;27.956;2022-07-10T02:36:24;6.75;;;4.50;;
18695;SDS011;22617;43.690;27.956;2022-07-10T02:41:30;6.50;;;4.43;;
18695;SDS011;22617;43.690;27.956;2022-07-10T02:46:34;8.55;;;4.30;;
18695;SDS011;22617;43.690;27.956;2022-07-10T02:51:38;5.03;;;4.30;;
18695;SDS011;22617;43.690;27.956;2022-07-10T02:56:44;6.35;;;4.50;;
18695;SDS011;22617;43.690;27.956;2022-07-10T03:01:48;8.00;;;4.60;;
18695;SDS011;22617;43.690;27.956;2022-07-10T03:06:52;4.87;;;4.10;;
18695;SDS011;22617;43.690;27.956;2022-07-10T03:11:58;5.13;;;4.20;;
18695;SDS011;22617;43.690;27.956;2022-07-10T03:17:03;12.68;;;4.90;;
18695;SDS011;22617;43.690;27.956;2022-07-10T03:22:07;8.88;;;5.35;;
18695;SDS011;22617;43.690;27.956;2022-07-10T03:27:13;7.03;;;4.40;;
18695;SDS011;22617;43.690;27.956;2022-07-10T03:32:17;7.05;;;4.75;;
18695;SDS011;22617;43.690;27.956;2022-07-10T03:37:21;5.68;;;4.43;;
18695;SDS011;22617;43.690;27.956;2022-07-10T03:42:26;9.68;;;4.55;;
18695;SDS011;22617;43.690;27.956;2022-07-10T03:47:31;5.15;;;4.43;;
18695;SDS011;22617;43.690;27.956;2022-07-10T03:52:36;8.07;;;4.85;;
18695;SDS011;22617;43.690;27.956;2022-07-10T03:57:41;8.65;;;5.50;;
18695;SDS011;22617;43.690;27.956;2022-07-10T04:02:59;9.00;;;5.40;;
18695;SDS011;22617;43.690;27.956;2022-07-10T04:08:04;5.78;;;4.90;;
18695;SDS011;22617;43.690;27.956;2022-07-10T04:13:11;7.80;;;5.25;;
18695;SDS011;22617;43.690;27.956;2022-07-10T04:18:15;9.50;;;5.28;;
18695;SDS011;22617;43.690;27.956;2022-07-10T04:23:19;11.45;;;5.20;;
18695;SDS011;22617;43.690;27.956;2022-07-10T04:28:25;6.43;;;4.90;;
18695;SDS011;22617;43.690;27.956;2022-07-10T04:33:29;7.47;;;4.78;;
18695;SDS011;22617;43.690;27.956;2022-07-10T04:38:33;6.55;;;4.55;;
18695;SDS011;22617;43.690;27.956;2022-07-10T04:43:39;6.65;;;4.43;;
18695;SDS011;22617;43.690;27.956;2022-07-10T04:48:43;5.53;;;4.50;;
18695;SDS011;22617;43.690;27.956;2022-07-10T04:53:47;6.90;;;5.95;;
18695;SDS011;22617;43.690;27.956;2022-07-10T04:58:53;8.27;;;4.88;;
18695;SDS011;22617;43.690;27.956;2022-07-10T05:03:57;4.95;;;4.40;;
18695;SDS011;22617;43.690;27.956;2022-07-10T05:09:02;7.15;;;4.20;;
18695;SDS011;22617;43.690;27.956;2022-07-10T05:14:08;5.88;;;4.32;;
18695;SDS011;22617;43.690;27.956;2022-07-10T05:19:12;5.47;;;4.30;;
18695;SDS011;22617;43.690;27.956;2022-07-10T05:24:16;8.55;;;4.60;;
18695;SDS011;22617;43.690;27.956;2022-07-10T05:29:22;6.03;;;4.20;;
18695;SDS011;22617;43.690;27.956;2022-07-10T05:34:26;5.57;;;4.50;;
18695;SDS011;22617;43.690;27.956;2022-07-10T05:39:30;7.88;;;4.28;;
18695;SDS011;22617;43.690;27.956;2022-07-10T05:44:36;6.30;;;4.22;;
18695;SDS011;22617;43.690;27.956;2022-07-10T05:49:40;7.47;;;4.32;;
18695;SDS011;22617;43.690;27.956;2022-07-10T05:54:45;5.95;;;4.50;;
18695;SDS011;22617;43.690;27.956;2022-07-10T05:59:50;6.72;;;4.32;;
18695;SDS011;22617;43.690;27.956;2022-07-10T06:04:54;5.20;;;4.50;;
18695;SDS011;22617;43.690;27.956;2022-07-10T06:09:59;4.85;;;4.35;;
18695;SDS011;22617;43.690;27.956;2022-07-10T06:15:06;6.18;;;4.55;;
18695;SDS011;22617;43.690;27.956;2022-07-10T06:20:17;4.50;;;3.83;;
18695;SDS011;22617;43.690;27.956;2022-07-10T06:25:22;6.68;;;3.97;;
18695;SDS011;22617;43.690;27.956;2022-07-10T06:30:34;6.07;;;4.30;;
18695;SDS011;22617;43.690;27.956;2022-07-10T06:35:38;5.47;;;3.92;;
18695;SDS011;22617;43.690;27.956;2022-07-10T06:40:43;6.07;;;4.20;;
18695;SDS011;22617;43.690;27.956;2022-07-10T06:45:50;4.25;;;3.67;;
18695;SDS011;22617;43.690;27.956;2022-07-10T06:50:54;6.63;;;3.67;;
18695;SDS011;22617;43.690;27.956;2022-07-10T06:55:59;6.47;;;4.22;;
18695;SDS011;22617;43.690;27.956;2022-07-10T07:01:04;5.38;;;3.90;;
18695;SDS011;22617;43.690;27.956;2022-07-10T07:06:09;7.72;;;5.55;;
18695;SDS011;22617;43.690;27.956;2022-07-10T07:11:13;6.15;;;4.07;;
18695;SDS011;22617;43.690;27.956;2022-07-10T07:16:19;7.10;;;3.97;;
18695;SDS011;22617;43.690;27.956;2022-07-10T07:21:30;4.20;;;3.80;;
18695;SDS011;22617;43.690;27.956;2022-07-10T07:26:51;4.13;;;3.72;;
18695;SDS011;22617;43.690;27.956;2022-07-10T07:31:57;3.75;;;3.17;;
18695;SDS011;22617;43.690;27.956;2022-07-10T07:37:01;6.97;;;3.42;;
18695;SDS011;22617;43.690;27.956;2022-07-10T07:42:06;6.07;;;3.35;;
18695;SDS011;22617;43.690;27.956;2022-07-10T07:47:11;4.13;;;3.10;;
18695;SDS011;22617;43.690;27.956;2022-07-10T07:52:15;4.18;;;3.65;;
18695;SDS011;22617;43.690;27.956;2022-07-10T07:57:19;5.00;;;3.08;;
18695;SDS011;22617;43.690;27.956;2022-07-10T08:02:25;7.25;;;4.10;;
18695;SDS011;22617;43.690;27.956;2022-07-10T08:07:33;6.88;;;3.92;;
18695;SDS011;22617;43.690;27.956;2022-07-10T08:12:38;3.67;;;2.75;;
18695;SDS011;22617;43.690;27.956;2022-07-10T08:17:46;5.53;;;3.20;;
18695;SDS011;22617;43.690;27.956;2022-07-10T08:22:52;6.18;;;2.97;;
18695;SDS011;22617;43.690;27.956;2022-07-10T08:28:01;5.25;;;4.20;;
18695;SDS011;22617;43.690;27.956;2022-07-10T08:33:07;12.30;;;4.00;;
18695;SDS011;22617;43.690;27.956;2022-07-10T08:38:11;3.00;;;2.80;;
18695;SDS011;22617;43.690;27.956;2022-07-10T08:43:15;4.55;;;2.72;;
18695;SDS011;22617;43.690;27.956;2022-07-10T08:48:22;3.70;;;2.65;;
18695;SDS011;22617;43.690;27.956;2022-07-10T08:53:28;5.60;;;2.63;;
18695;SDS011;22617;43.690;27.956;2022-07-10T08:58:33;4.93;;;2.75;;
18695;SDS011;22617;43.690;27.956;2022-07-10T09:03:41;6.20;;;4.10;;
18695;SDS011;22617;43.690;27.956;2022-07-10T09:08:57;11.38;;;4.22;;
18695;SDS011;22617;43.690;27.956;2022-07-10T09:14:06;4.53;;;2.83;;
18695;SDS011;22617;43.690;27.956;2022-07-10T09:19:16;3.80;;;2.72;;
18695;SDS011;22617;43.690;27.956;2022-07-10T09:24:21;6.28;;;3.22;;
18695;SDS011;22617;43.690;27.956;2022-07-10T09:29:26;3.85;;;2.35;;
18695;SDS011;22617;43.690;27.956;2022-07-10T09:34:36;2.38;;;2.00;;
18695;SDS011;22617;43.690;27.956;2022-07-10T09:39:44;4.30;;;2.78;;
18695;SDS011;22617;43.690;27.956;2022-07-10T09:45:14;3.47;;;2.60;;
18695;SDS011;22617;43.690;27.956;2022-07-10T09:50:21;6.35;;;2.97;;
18695;SDS011;22617;43.690;27.956;2022-07-10T09:55:27;2.53;;;1.85;;
18695;SDS011;22617;43.690;27.956;2022-07-10T10:00:33;5.97;;;3.45;;
18695;SDS011;22617;43.690;27.956;2022-07-10T10:05:42;4.97;;;2.30;;
18695;SDS011;22617;43.690;27.956;2022-07-10T10:10:49;3.08;;;1.98;;
18695;SDS011;22617;43.690;27.956;2022-07-10T10:15:54;2.40;;;1.90;;
18695;SDS011;22617;43.690;27.956;2022-07-10T10:21:00;5.95;;;2.08;;
18695;SDS011;22617;43.690;27.956;2022-07-10T10:26:08;2.92;;;1.95;;
18695;SDS011;22617;43.690;27.956;2022-07-10T10:31:13;6.63;;;2.38;;
18695;SDS011;22617;43.690;27.956;2022-07-10T10:41:50;2.33;;;1.70;;
18695;SDS011;22617;43.690;27.956;2022-07-10T10:46:56;2.25;;;1.60;;
18695;SDS011;22617;43.690;27.956;2022-07-10T10:52:10;2.15;;;1.60;;
18695;SDS011;22617;43.690;27.956;2022-07-10T10:57:17;2.53;;;1.60;;
18695;SDS011;22617;43.690;27.956;2022-07-10T11:02:22;3.25;;;1.58;;
18695;SDS011;22617;43.690;27.956;2022-07-10T11:12:57;2.38;;;1.88;;
18695;SDS011;22617;43.690;27.956;2022-07-10T11:18:03;2.05;;;1.92;;
18695;SDS011;22617;43.690;27.956;2022-07-10T11:28:57;2.20;;;1.60;;
18695;SDS011;22617;43.690;27.956;2022-07-10T11:34:02;4.80;;;1.58;;
18695;SDS011;22617;43.690;27.956;2022-07-10T11:39:09;2.45;;;1.52;;
18695;SDS011;22617;43.690;27.956;2022-07-10T11:44:15;7.72;;;2.00;;
18695;SDS011;22617;43.690;27.956;2022-07-10T11:49:20;3.97;;;2.00;;
18695;SDS011;22617;43.690;27.956;2022-07-10T11:54:26;6.75;;;1.60;;
18695;SDS011;22617;43.690;27.956;2022-07-10T11:59:31;2.08;;;1.60;;
18695;SDS011;22617;43.690;27.956;2022-07-10T12:04:35;2.33;;;1.60;;
18695;SDS011;22617;43.690;27.956;2022-07-10T12:09:41;3.00;;;1.30;;
18695;SDS011;22617;43.690;27.956;2022-07-10T12:14:45;3.30;;;1.83;;
18695;SDS011;22617;43.690;27.956;2022-07-10T12:19:50;4.68;;;1.90;;
18695;SDS011;22617;43.690;27.956;2022-07-10T12:24:59;2.13;;;1.45;;
18695;SDS011;22617;43.690;27.956;2022-07-10T12:30:07;3.65;;;1.58;;
18695;SDS011;22617;43.690;27.956;2022-07-10T12:35:12;3.90;;;1.70;;
18695;SDS011;22617;43.690;27.956;2022-07-10T12:40:31;3.55;;;1.70;;
18695;SDS011;22617;43.690;27.956;2022-07-10T12:45:36;4.30;;;1.95;;
18695;SDS011;22617;43.690;27.956;2022-07-10T12:50:41;2.70;;;1.70;;
18695;SDS011;22617;43.690;27.956;2022-07-10T12:55:47;3.30;;;1.83;;
18695;SDS011;22617;43.690;27.956;2022-07-10T13:00:51;3.70;;;1.63;;
18695;SDS011;22617;43.690;27.956;2022-07-10T13:05:56;4.57;;;1.52;;
18695;SDS011;22617;43.690;27.956;2022-07-10T13:11:02;2.97;;;1.85;;
18695;SDS011;22617;43.690;27.956;2022-07-10T13:16:06;3.17;;;1.83;;
18695;SDS011;22617;43.690;27.956;2022-07-10T13:21:12;2.20;;;1.63;;
18695;SDS011;22617;43.690;27.956;2022-07-10T13:26:18;6.00;;;3.22;;
18695;SDS011;22617;43.690;27.956;2022-07-10T13:31:23;4.15;;;2.15;;
18695;SDS011;22617;43.690;27.956;2022-07-10T13:36:28;4.10;;;2.10;;
18695;SDS011;22617;43.690;27.956;2022-07-10T13:41:35;5.07;;;2.78;;
18695;SDS011;22617;43.690;27.956;2022-07-10T13:46:39;1.77;;;1.60;;
18695;SDS011;22617;43.690;27.956;2022-07-10T13:51:43;4.55;;;1.60;;
18695;SDS011;22617;43.690;27.956;2022-07-10T13:56:49;3.15;;;1.60;;
18695;SDS011;22617;43.690;27.956;2022-07-10T14:01:54;3.08;;;1.55;;
18695;SDS011;22617;43.690;27.956;2022-07-10T14:06:58;5.40;;;1.80;;
18695;SDS011;22617;43.690;27.956;2022-07-10T14:12:04;3.00;;;1.58;;
18695;SDS011;22617;43.690;27.956;2022-07-10T14:17:09;3.35;;;1.55;;
18695;SDS011;22617;43.690;27.956;2022-07-10T14:22:14;3.47;;;1.70;;
18695;SDS011;22617;43.690;27.956;2022-07-10T14:27:21;1.80;;;1.40;;
18695;SDS011;22617;43.690;27.956;2022-07-10T14:32:26;3.20;;;1.55;;
18695;SDS011;22617;43.690;27.956;2022-07-10T14:37:30;4.47;;;1.77;;
18695;SDS011;22617;43.690;27.956;2022-07-10T14:42:36;1.98;;;1.83;;
18695;SDS011;22617;43.690;27.956;2022-07-10T14:47:41;6.85;;;2.00;;
18695;SDS011;22617;43.690;27.956;2022-07-10T14:52:46;5.40;;;1.92;;
18695;SDS011;22617;43.690;27.956;2022-07-10T14:57:51;2.33;;;2.00;;
18695;SDS011;22617;43.690;27.956;2022-07-10T15:02:56;4.43;;;2.42;;
18695;SDS011;22617;43.690;27.956;2022-07-10T15:08:05;3.58;;;2.10;;
18695;SDS011;22617;43.690;27.956;2022-07-10T15:13:11;2.72;;;1.90;;
18695;SDS011;22617;43.690;27.956;2022-07-10T15:18:16;6.82;;;1.90;;
18695;SDS011;22617;43.690;27.956;2022-07-10T15:23:20;2.60;;;2.03;;
18695;SDS011;22617;43.690;27.956;2022-07-10T15:28:26;4.03;;;2.38;;
18695;SDS011;22617;43.690;27.956;2022-07-10T15:33:30;3.03;;;2.33;;
18695;SDS011;22617;43.690;27.956;2022-07-10T15:38:35;4.28;;;2.83;;
18695;SDS011;22617;43.690;27.956;2022-07-10T15:43:40;3.33;;;2.80;;
18695;SDS011;22617;43.690;27.956;2022-07-10T15:48:47;6.28;;;3.08;;
18695;SDS011;22617;43.690;27.956;2022-07-10T15:53:52;5.97;;;3.05;;
18695;SDS011;22617;43.690;27.956;2022-07-10T15:58:58;4.75;;;2.75;;
18695;SDS011;22617;43.690;27.956;2022-07-10T16:04:02;14.90;;;3.70;;
18695;SDS011;22617;43.690;27.956;2022-07-10T16:09:06;5.35;;;3.03;;
18695;SDS011;22617;43.690;27.956;2022-07-10T16:14:18;5.40;;;2.70;;
18695;SDS011;22617;43.690;27.956;2022-07-10T16:19:22;3.28;;;2.95;;
18695;SDS011;22617;43.690;27.956;2022-07-10T16:24:27;5.20;;;3.13;;
18695;SDS011;22617;43.690;27.956;2022-07-10T16:29:33;3.95;;;3.28;;
18695;SDS011;22617;43.690;27.956;2022-07-10T16:34:38;4.60;;;3.10;;
18695;SDS011;22617;43.690;27.956;2022-07-10T16:39:42;6.05;;;3.65;;
18695;SDS011;22617;43.690;27.956;2022-07-10T16:44:48;6.30;;;3.65;;
18695;SDS011;22617;43.690;27.956;2022-07-10T16:49:54;10.07;;;3.85;;
18695;SDS011;22617;43.690;27.956;2022-07-10T16:55:00;6.10;;;3.83;;
18695;SDS011;22617;43.690;27.956;2022-07-10T17:00:07;6.22;;;3.70;;
18695;SDS011;22617;43.690;27.956;2022-07-10T17:05:12;4.03;;;3.63;;
18695;SDS011;22617;43.690;27.956;2022-07-10T17:10:17;4.18;;;3.70;;
18695;SDS011;22617;43.690;27.956;2022-07-10T17:15:23;6.50;;;3.47;;
18695;SDS011;22617;43.690;27.956;2022-07-10T17:20:28;7.22;;;3.63;;
18695;SDS011;22617;43.690;27.956;2022-07-10T17:25:33;9.00;;;4.30;;
18695;SDS011;22617;43.690;27.956;2022-07-10T17:30:39;8.93;;;4.47;;
18695;SDS011;22617;43.690;27.956;2022-07-10T17:35:44;8.65;;;4.80;;
18695;SDS011;22617;43.690;27.956;2022-07-10T17:40:48;11.10;;;4.80;;
18695;SDS011;22617;43.690;27.956;2022-07-10T17:45:55;6.93;;;5.03;;
18695;SDS011;22617;43.690;27.956;2022-07-10T17:51:00;11.48;;;5.00;;
18695;SDS011;22617;43.690;27.956;2022-07-10T17:56:04;9.30;;;4.95;;
18695;SDS011;22617;43.690;27.956;2022-07-10T18:01:11;5.85;;;4.75;;
18695;SDS011;22617;43.690;27.956;2022-07-10T18:06:15;7.85;;;4.97;;
18695;SDS011;22617;43.690;27.956;2022-07-10T18:11:20;8.05;;;4.88;;
18695;SDS011;22617;43.690;27.956;2022-07-10T18:16:26;5.90;;;4.70;;
18695;SDS011;22617;43.690;27.956;2022-07-10T18:21:31;6.63;;;4.82;;
18695;SDS011;22617;43.690;27.956;2022-07-10T18:26:35;4.85;;;4.45;;
18695;SDS011;22617;43.690;27.956;2022-07-10T18:31:41;7.45;;;4.68;;
18695;SDS011;22617;43.690;27.956;2022-07-10T18:36:46;4.60;;;4.15;;
18695;SDS011;22617;43.690;27.956;2022-07-10T18:41:50;4.93;;;4.43;;
18695;SDS011;22617;43.690;27.956;2022-07-10T18:46:55;5.30;;;4.80;;
18695;SDS011;22617;43.690;27.956;2022-07-10T18:52:00;7.22;;;5.50;;
18695;SDS011;22617;43.690;27.956;2022-07-10T18:57:04;10.45;;;6.78;;
18695;SDS011;22617;43.690;27.956;2022-07-10T19:02:19;15.07;;;7.78;;
18695;SDS011;22617;43.690;27.956;2022-07-10T19:07:23;8.27;;;5.28;;
18695;SDS011;22617;43.690;27.956;2022-07-10T19:12:28;6.05;;;4.85;;
18695;SDS011;22617;43.690;27.956;2022-07-10T19:17:33;23.48;;;15.13;;
18695;SDS011;22617;43.690;27.956;2022-07-10T19:22:46;4.95;;;4.20;;
18695;SDS011;22617;43.690;27.956;2022-07-10T19:27:51;6.82;;;3.90;;
18695;SDS011;22617;43.690;27.956;2022-07-10T19:32:57;5.85;;;4.03;;
18695;SDS011;22617;43.690;27.956;2022-07-10T19:38:01;5.45;;;4.15;;
18695;SDS011;22617;43.690;27.956;2022-07-10T19:43:06;6.25;;;4.60;;
18695;SDS011;22617;43.690;27.956;2022-07-10T19:48:12;8.18;;;4.70;;
18695;SDS011;22617;43.690;27.956;2022-07-10T19:53:16;5.10;;;4.50;;
18695;SDS011;22617;43.690;27.956;2022-07-10T19:58:21;7.65;;;4.55;;
18695;SDS011;22617;43.690;27.956;2022-07-10T20:03:27;5.15;;;4.57;;
18695;SDS011;22617;43.690;27.956;2022-07-10T20:08:31;5.32;;;4.82;;
18695;SDS011;22617;43.690;27.956;2022-07-10T20:13:35;5.95;;;4.07;;
18695;SDS011;22617;43.690;27.956;2022-07-10T20:18:42;5.53;;;4.85;;
18695;SDS011;22617;43.690;27.956;2022-07-10T20:23:47;7.00;;;4.65;;
18695;SDS011;22617;43.690;27.956;2022-07-10T20:28:51;5.55;;;4.20;;
18695;SDS011;22617;43.690;27.956;2022-07-10T20:33:58;6.80;;;4.63;;
18695;SDS011;22617;43.690;27.956;2022-07-10T20:39:02;5.35;;;4.50;;
18695;SDS011;22617;43.690;27.956;2022-07-10T20:44:06;9.55;;;4.63;;
18695;SDS011;22617;43.690;27.956;2022-07-10T20:49:12;9.45;;;4.82;;
18695;SDS011;22617;43.690;27.956;2022-07-10T20:54:16;6.15;;;5.13;;
18695;SDS011;22617;43.690;27.956;2022-07-10T20:59:21;6.80;;;4.40;;
18695;SDS011;22617;43.690;27.956;2022-07-10T21:04:26;5.95;;;5.03;;
18695;SDS011;22617;43.690;27.956;2022-07-10T21:09:31;6.38;;;4.85;;
18695;SDS011;22617;43.690;27.956;2022-07-10T21:14:35;7.88;;;4.63;;
18695;SDS011;22617;43.690;27.956;2022-07-10T21:19:40;8.25;;;5.25;;
18695;SDS011;22617;43.690;27.956;2022-07-10T21:24:45;9.90;;;4.78;;
18695;SDS011;22617;43.690;27.956;2022-07-10T21:29:49;7.57;;;4.82;;
18695;SDS011;22617;43.690;27.956;2022-07-10T21:34:56;4.60;;;4.10;;
18695;SDS011;22617;43.690;27.956;2022-07-10T21:40:00;4.53;;;4.07;;
18695;SDS011;22617;43.690;27.956;2022-07-10T21:45:05;6.40;;;5.10;;
18695;SDS011;22617;43.690;27.956;2022-07-10T21:50:10;6.05;;;4.70;;
18695;SDS011;22617;43.690;27.956;2022-07-10T21:55:14;11.35;;;5.30;;
18695;SDS011;22617;43.690;27.956;2022-07-10T22:00:19;6.13;;;4.75;;
18695;SDS011;22617;43.690;27.956;2022-07-10T22:05:27;6.78;;;5.28;;
18695;SDS011;22617;43.690;27.956;2022-07-10T22:10:31;6.00;;;5.10;;
18695;SDS011;22617;43.690;27.956;2022-07-10T22:15:36;6.07;;;5.15;;
18695;SDS011;22617;43.690;27.956;2022-07-10T22:20:41;6.72;;;4.97;;
18695;SDS011;22617;43.690;27.956;2022-07-10T22:25:45;5.97;;;5.38;;
18695;SDS011;22617;43.690;27.956;2022-07-10T22:30:50;5.93;;;5.32;;
18695;SDS011;22617;43.690;27.956;2022-07-10T22:36:12;6.55;;;5.38;;
18695;SDS011;22617;43.690;27.956;2022-07-10T22:41:17;5.68;;;5.03;;
18695;SDS011;22617;43.690;27.956;2022-07-10T22:46:21;6.00;;;5.15;;
18695;SDS011;22617;43.690;27.956;2022-07-10T22:51:27;5.68;;;5.03;;
18695;SDS011;22617;43.690;27.956;2022-07-10T22:56:32;5.47;;;4.85;;
18695;SDS011;22617;43.690;27.956;2022-07-10T23:01:37;6.85;;;5.35;;
18695;SDS011;22617;43.690;27.956;2022-07-10T23:06:51;6.63;;;5.38;;
18695;SDS011;22617;43.690;27.956;2022-07-10T23:11:55;7.05;;;5.70;;
18695;SDS011;22617;43.690;27.956;2022-07-10T23:16:59;6.95;;;5.72;;
18695;SDS011;22617;43.690;27.956;2022-07-10T23:22:04;7.40;;;5.32;;
18695;SDS011;22617;43.690;27.956;2022-07-10T23:27:09;7.05;;;5.22;;
18695;SDS011;22617;43.690;27.956;2022-07-10T23:32:13;7.13;;;5.70;;
18695;SDS011;22617;43.690;27.956;2022-07-10T23:37:19;7.20;;;5.73;;
18695;SDS011;22617;43.690;27.956;2022-07-10T23:42:25;7.20;;;5.57;;
18695;SDS011;22617;43.690;27.956;2022-07-10T23:47:29;7.72;;;6.03;;
18695;SDS011;22617;43.690;27.956;2022-07-10T23:52:35;6.78;;;5.43;;
18695;SDS011;22617;43.690;27.956;2022-07-10T23:57:39;6.97;;;5.43;;
